Terminal Aerodrome Forecast
Issued by NWS

Home | Current Version | Previous Version | Text Only | Print | Product List | Glossary On
Versions: 1 2 3 4 5 6 7 8 9 10 11 12 13 14 15 16 17 18
910
FTUS43 KGRB 300520
TAFCWA
TAF
KCWA 300520Z 3006/3106 23003KT P6SM SCT070
      TEMPO 3007/3011 1SM BR
     FM301400 29006KT P6SM SCT250
     FM310000 00000KT P6SM SCT090 BKN200
      AMD LTD TO CLD VIS AND WIND TIL 301100=

USA.gov is the U.S. government's official web portal to all federal, state and local government web resources and services.